createdAt,value
2023-04-14T00:00:39.892Z,5.07
2023-04-14T00:03:26.431Z,4.63
2023-04-14T00:06:13.031Z,4.63
2023-04-14T00:08:59.796Z,4.78
2023-04-14T00:11:46.101Z,4.66
2023-04-14T00:14:32.605Z,4.25
2023-04-14T00:17:19.103Z,4.28
2023-04-14T00:20:06.530Z,4.38
2023-04-14T00:22:52.825Z,4.15
2023-04-14T00:25:39.433Z,3.99
2023-04-14T00:28:26.118Z,3.93
2023-04-14T00:31:12.687Z,3.87
2023-04-14T00:33:59.015Z,3.70
2023-04-14T00:36:45.545Z,3.85
2023-04-14T00:39:32.061Z,3.57
2023-04-14T00:42:19.110Z,3.86
2023-04-14T00:45:05.767Z,3.72
2023-04-14T00:47:52.508Z,3.71
2023-04-14T00:50:39.455Z,3.57
2023-04-14T00:53:27.358Z,3.44
2023-04-14T00:56:14.157Z,3.55
2023-04-14T00:59:02.067Z,3.47
2023-04-14T01:01:49.031Z,3.57
2023-04-14T01:04:52.705Z,3.32
2023-04-14T01:07:41.337Z,3.45
2023-04-14T01:10:34.296Z,3.24
2023-04-14T01:13:35.392Z,3.16
2023-04-14T01:16:50.242Z,3.08
2023-04-14T01:20:14.623Z,3.02
2023-04-14T01:23:16.136Z,3.05
2023-04-14T01:26:12.441Z,3.03
2023-04-14T01:29:43.658Z,3.01
2023-04-14T01:32:43.117Z,3.05
2023-04-14T01:35:37.521Z,2.98
2023-04-14T01:38:27.481Z,2.94
2023-04-14T01:41:16.863Z,2.58
2023-04-14T01:44:06.534Z,2.70
2023-04-14T01:47:00.350Z,2.53
2023-04-14T01:49:51.504Z,2.54
2023-04-14T01:52:39.560Z,2.20
2023-04-14T01:55:29.068Z,2.58
2023-04-14T01:58:18.937Z,2.53
2023-04-14T02:01:06.370Z,2.42
2023-04-14T02:03:53.260Z,2.40
2023-04-14T02:06:42.376Z,2.35
2023-04-14T02:09:31.253Z,2.38
2023-04-14T02:12:19.734Z,2.08
2023-04-14T02:15:07.260Z,2.39
2023-04-14T02:17:57.039Z,2.34
2023-04-14T02:20:47.933Z,2.47
2023-04-14T02:23:34.399Z,2.62
2023-04-14T02:26:23.846Z,2.54
2023-04-14T02:29:14.076Z,2.76
2023-04-14T02:32:04.693Z,2.90
2023-04-14T02:35:04.244Z,2.84
2023-04-14T02:37:56.281Z,2.90
2023-04-14T02:40:44.880Z,2.95
2023-04-14T02:43:36.534Z,2.88
2023-04-14T02:46:25.513Z,2.48
2023-04-14T02:49:14.914Z,2.57
2023-04-14T02:52:05.960Z,2.41
2023-04-14T02:54:53.935Z,2.44
2023-04-14T02:57:41.515Z,2.11
2023-04-14T03:00:29.652Z,2.40
2023-04-14T03:03:17.241Z,2.19
2023-04-14T03:06:08.379Z,2.30
2023-04-14T03:08:57.244Z,2.14
2023-04-14T03:11:46.499Z,1.86
2023-04-14T03:14:37.935Z,2.12
2023-04-14T03:17:26.085Z,2.59
2023-04-14T03:20:14.242Z,2.53
2023-04-14T03:23:04.971Z,2.58
2023-04-14T03:25:58.110Z,2.25
2023-04-14T03:28:50.820Z,2.30
2023-04-14T03:31:39.566Z,2.09
2023-04-14T03:34:30.794Z,2.29
2023-04-14T03:37:20.652Z,2.36
2023-04-14T03:40:11.419Z,2.38
2023-04-14T03:43:02.503Z,2.14
2023-04-14T03:45:51.657Z,2.30
2023-04-14T03:48:42.792Z,2.27
2023-04-14T03:51:32.816Z,1.96
2023-04-14T03:54:23.345Z,1.61
2023-04-14T03:57:12.142Z,1.49
2023-04-14T04:00:05.228Z,1.49
2023-04-14T04:03:01.223Z,1.21
2023-04-14T04:05:51.446Z,1.07
2023-04-14T04:08:40.331Z,1.36
2023-04-14T04:11:29.944Z,1.28
2023-04-14T04:14:21.508Z,1.28
2023-04-14T04:17:09.890Z,1.13
2023-04-14T04:19:58.606Z,1.33
2023-04-14T04:22:49.694Z,1.52
2023-04-14T04:25:38.247Z,1.64
2023-04-14T04:28:32.578Z,1.47
2023-04-14T04:31:20.317Z,1.46
2023-04-14T04:34:08.195Z,1.47
2023-04-14T04:37:00.716Z,1.34
2023-04-14T04:39:50.005Z,1.31
2023-04-14T04:42:42.660Z,1.20
2023-04-14T04:46:03.151Z,1.36
2023-04-14T04:48:52.588Z,1.43
2023-04-14T04:51:39.253Z,1.08
2023-04-14T04:54:27.123Z,0.98
2023-04-14T04:57:13.537Z,1.39
2023-04-14T05:00:00.178Z,1.45
2023-04-14T05:02:46.578Z,1.14
2023-04-14T05:05:37.185Z,1.35
2023-04-14T05:08:23.352Z,1.52
2023-04-14T05:11:09.967Z,1.49
2023-04-14T05:13:56.279Z,1.62
2023-04-14T05:16:42.808Z,1.80
2023-04-14T05:19:28.945Z,1.88
2023-04-14T05:22:15.958Z,2.17
2023-04-14T05:25:02.179Z,2.21
2023-04-14T05:27:48.583Z,2.63
2023-04-14T05:30:35.048Z,2.61
2023-04-14T05:33:21.692Z,2.89
2023-04-14T05:36:08.446Z,3.03
2023-04-14T05:38:54.891Z,3.10
2023-04-14T05:41:41.115Z,3.47
2023-04-14T05:44:27.663Z,3.70
2023-04-14T05:47:14.431Z,3.88
2023-04-14T05:50:00.915Z,3.92
2023-04-14T05:52:47.148Z,4.28
2023-04-14T05:55:33.501Z,4.54
2023-04-14T05:58:19.919Z,4.71
2023-04-14T06:01:06.441Z,5.02
2023-04-14T06:03:52.853Z,5.32
2023-04-14T06:06:39.612Z,5.39
2023-04-14T06:09:26.214Z,5.72
2023-04-14T06:12:14.084Z,5.93
2023-04-14T06:15:00.731Z,5.75
2023-04-14T06:17:48.146Z,6.30
2023-04-14T06:20:35.559Z,6.48
2023-04-14T06:23:21.968Z,6.64
2023-04-14T06:26:08.944Z,6.74
2023-04-14T06:28:57.266Z,6.71
2023-04-14T06:31:43.919Z,6.95
2023-04-14T06:34:30.530Z,7.05
2023-04-14T06:37:16.921Z,7.10
2023-04-14T06:40:03.479Z,7.20
2023-04-14T06:42:49.985Z,7.30
2023-04-14T06:45:36.584Z,7.06
2023-04-14T06:48:23.204Z,7.35
2023-04-14T06:51:13.625Z,7.45
2023-04-14T06:54:00.702Z,7.33
2023-04-14T06:56:47.446Z,7.55
2023-04-14T06:59:33.807Z,7.57
2023-04-14T07:02:20.386Z,7.70
2023-04-14T07:05:07.641Z,7.84
2023-04-14T07:07:54.272Z,7.98
2023-04-14T07:13:28.090Z,8.15
2023-04-14T07:16:14.362Z,8.22
2023-04-14T07:19:01.100Z,8.08
2023-04-14T07:21:47.932Z,8.25
2023-04-14T07:24:34.168Z,8.18
2023-04-14T07:27:20.946Z,8.18
2023-04-14T07:30:08.110Z,8.31
2023-04-14T07:32:54.641Z,8.35
2023-04-14T07:35:48.248Z,8.30
2023-04-14T07:38:45.350Z,8.40
2023-04-14T07:41:32.166Z,8.20
2023-04-14T07:44:18.400Z,8.09
2023-04-14T07:47:04.743Z,8.57
2023-04-14T07:49:53.025Z,8.74
2023-04-14T07:52:39.235Z,8.68
2023-04-14T07:55:27.578Z,8.71
2023-04-14T07:58:15.785Z,8.77
2023-04-14T08:01:03.070Z,8.89
2023-04-14T08:03:50.924Z,8.69
2023-04-14T08:06:37.753Z,9.06
2023-04-14T08:09:24.121Z,8.99
2023-04-14T08:12:10.335Z,8.98
2023-04-14T08:14:57.139Z,9.25
2023-04-14T08:17:43.395Z,9.14
2023-04-14T08:20:29.852Z,9.22
2023-04-14T08:23:16.283Z,9.13
2023-04-14T08:26:03.955Z,9.31
2023-04-14T08:28:50.745Z,9.29
2023-04-14T08:31:37.207Z,9.50
2023-04-14T08:34:28.596Z,9.58
2023-04-14T08:37:15.651Z,9.78
2023-04-14T08:40:01.956Z,9.71
2023-04-14T08:42:48.329Z,9.78
2023-04-14T08:45:36.086Z,9.70
2023-04-14T08:48:27.655Z,10.05
2023-04-14T08:51:22.442Z,10.19
2023-04-14T08:54:10.567Z,10.10
2023-04-14T08:56:58.660Z,10.44
2023-04-14T08:59:45.494Z,10.27
2023-04-14T09:02:35.838Z,10.12
2023-04-14T09:05:23.276Z,10.39
2023-04-14T09:08:10.899Z,10.44
2023-04-14T09:10:58.104Z,10.49
2023-04-14T09:13:45.499Z,10.69
2023-04-14T09:16:32.772Z,10.41
2023-04-14T09:19:24.784Z,10.86
2023-04-14T09:22:11.856Z,10.70
2023-04-14T09:24:58.559Z,10.68
2023-04-14T09:27:45.478Z,10.96
2023-04-14T09:30:32.100Z,11.25
2023-04-14T09:33:22.991Z,11.33
2023-04-14T09:36:24.304Z,11.39
2023-04-14T09:39:20.208Z,11.65
2023-04-14T09:42:07.079Z,11.90
2023-04-14T09:44:57.758Z,12.37
2023-04-14T09:47:44.814Z,12.12
2023-04-14T09:50:31.853Z,12.35
2023-04-14T09:53:28.508Z,12.51
2023-04-14T09:56:16.053Z,12.47
2023-04-14T09:59:03.553Z,12.59
2023-04-14T10:01:50.594Z,12.91
2023-04-14T10:04:37.986Z,13.11
2023-04-14T10:07:27.298Z,12.74
2023-04-14T10:10:14.083Z,12.81
2023-04-14T10:13:00.829Z,12.93
2023-04-14T10:15:47.283Z,12.90
2023-04-14T10:18:33.833Z,12.87
2023-04-14T10:21:22.794Z,13.02
2023-04-14T10:24:10.056Z,13.05
2023-04-14T10:26:57.603Z,12.97
2023-04-14T10:29:43.870Z,13.03
2023-04-14T10:32:34.281Z,13.34
2023-04-14T10:35:21.329Z,13.24
2023-04-14T10:38:07.886Z,13.72
2023-04-14T10:40:54.162Z,13.77
2023-04-14T10:43:40.598Z,13.85
2023-04-14T10:46:43.809Z,13.44
2023-04-14T10:49:35.470Z,13.52
2023-04-14T10:52:22.546Z,14.01
2023-04-14T10:55:09.337Z,13.71
2023-04-14T10:58:08.771Z,13.88
2023-04-14T11:00:58.311Z,14.05
2023-04-14T11:03:45.200Z,14.25
2023-04-14T11:06:54.396Z,14.55
2023-04-14T11:09:42.537Z,14.44
2023-04-14T11:12:28.956Z,14.78
2023-04-14T11:15:18.206Z,14.53
2023-04-14T11:18:13.647Z,14.40
2023-04-14T11:21:13.222Z,14.27
2023-04-14T11:24:00.877Z,13.97
2023-04-14T11:26:47.821Z,14.25
2023-04-14T11:29:34.356Z,14.28
2023-04-14T11:32:21.336Z,14.14
2023-04-14T11:35:09.712Z,14.60
2023-04-14T11:37:57.876Z,14.57
2023-04-14T11:40:49.222Z,14.40
2023-04-14T11:43:37.949Z,14.40
2023-04-14T11:46:25.044Z,14.31
2023-04-14T11:49:11.976Z,14.10
2023-04-14T11:52:04.709Z,14.11
2023-04-14T11:54:51.634Z,14.08
2023-04-14T11:57:37.930Z,14.24
2023-04-14T12:00:24.695Z,14.13
2023-04-14T12:03:11.428Z,14.33
2023-04-14T12:06:03.206Z,14.31
2023-04-14T12:08:54.261Z,14.51
2023-04-14T12:11:40.801Z,14.70
2023-04-14T12:14:27.373Z,14.50
2023-04-14T12:17:17.071Z,14.57
2023-04-14T12:20:05.479Z,14.79
2023-04-14T12:22:52.162Z,14.98
2023-04-14T12:25:39.543Z,15.45
2023-04-14T12:28:30.731Z,15.36
2023-04-14T12:31:28.514Z,15.15
2023-04-14T12:34:14.960Z,15.52
2023-04-14T12:37:12.735Z,15.32
2023-04-14T12:40:01.248Z,15.29
2023-04-14T12:42:51.341Z,15.36
2023-04-14T12:45:48.600Z,15.60
2023-04-14T12:48:43.583Z,15.05
2023-04-14T12:51:39.448Z,14.75
2023-04-14T12:54:26.383Z,14.93
2023-04-14T12:57:13.115Z,14.77
2023-04-14T13:00:01.136Z,14.65
2023-04-14T13:02:47.785Z,14.54
2023-04-14T13:05:34.411Z,14.94
2023-04-14T13:08:20.920Z,15.25
2023-04-14T13:11:07.315Z,15.27
2023-04-14T13:13:54.155Z,15.39
2023-04-14T13:16:40.579Z,15.20
2023-04-14T13:19:27.170Z,15.55
2023-04-14T13:22:14.036Z,15.57
2023-04-14T13:25:00.552Z,15.33
2023-04-14T13:27:46.946Z,15.19
2023-04-14T13:30:33.512Z,15.11
2023-04-14T13:33:20.984Z,15.30
2023-04-14T13:36:07.679Z,15.70
2023-04-14T13:38:54.578Z,15.95
2023-04-14T13:41:40.972Z,16.18
2023-04-14T13:44:27.610Z,15.15
2023-04-14T13:47:14.160Z,15.45
2023-04-14T13:50:01.011Z,15.67
2023-04-14T13:52:47.214Z,15.19
2023-04-14T13:55:34.978Z,15.36
2023-04-14T13:58:21.361Z,15.44
2023-04-14T14:01:12.068Z,15.57
2023-04-14T14:03:58.493Z,15.68
2023-04-14T14:06:45.548Z,15.82
2023-04-14T14:09:31.911Z,15.80
2023-04-14T14:12:18.299Z,15.62
2023-04-14T14:15:05.787Z,15.52
2023-04-14T14:17:53.201Z,15.34
2023-04-14T14:20:39.876Z,15.29
2023-04-14T14:23:26.336Z,15.31
2023-04-14T14:26:14.086Z,15.53
2023-04-14T14:29:00.398Z,15.61
2023-04-14T14:31:46.973Z,15.65
2023-04-14T14:34:33.542Z,15.67
2023-04-14T14:37:21.216Z,15.42
2023-04-14T14:40:08.337Z,15.63
2023-04-14T14:42:54.857Z,15.40
2023-04-14T14:45:41.490Z,14.78
2023-04-14T14:48:28.248Z,15.03
2023-04-14T14:51:14.558Z,15.13
2023-04-14T14:54:09.298Z,15.29
2023-04-14T14:56:57.443Z,15.31
2023-04-14T14:59:43.930Z,15.22
2023-04-14T15:02:30.227Z,15.44
2023-04-14T15:05:16.906Z,15.58
2023-04-14T15:08:03.702Z,15.30
2023-04-14T15:10:53.155Z,15.39
2023-04-14T15:13:39.334Z,15.33
2023-04-14T15:16:26.587Z,15.08
2023-04-14T15:19:13.313Z,15.03
2023-04-14T15:22:01.097Z,14.51
2023-04-14T15:24:47.396Z,14.64
2023-04-14T15:27:33.653Z,14.59
2023-04-14T15:30:23.574Z,14.67
2023-04-14T15:33:10.416Z,14.45
2023-04-14T15:35:56.991Z,14.32
2023-04-14T15:38:43.496Z,14.57
2023-04-14T15:41:29.748Z,14.49
2023-04-14T15:44:16.134Z,14.53
2023-04-14T15:47:03.050Z,14.34
2023-04-14T15:50:01.341Z,13.92
2023-04-14T15:52:57.505Z,13.91
2023-04-14T15:55:44.428Z,13.76
2023-04-14T15:58:31.125Z,14.19
2023-04-14T16:01:17.745Z,14.33
2023-04-14T16:04:04.679Z,14.25
2023-04-14T16:06:51.271Z,14.49
2023-04-14T16:09:37.777Z,14.35
2023-04-14T16:12:24.301Z,14.30
2023-04-14T16:15:11.422Z,14.53
2023-04-14T16:17:58.068Z,14.52
2023-04-14T16:20:44.309Z,14.59
2023-04-14T16:23:30.836Z,14.52
2023-04-14T16:26:17.276Z,14.41
2023-04-14T16:29:03.283Z,14.39
2023-04-14T16:31:49.834Z,14.38
2023-04-14T16:34:36.419Z,14.38
2023-04-14T16:37:25.829Z,14.30
2023-04-14T16:40:12.411Z,13.87
2023-04-14T16:42:58.635Z,13.75
2023-04-14T16:45:46.522Z,13.69
2023-04-14T16:48:33.235Z,13.70
2023-04-14T16:51:19.930Z,13.71
2023-04-14T16:54:06.203Z,13.40
2023-04-14T16:56:53.136Z,13.53
2023-04-14T16:59:39.865Z,13.45
2023-04-14T17:02:26.608Z,13.11
2023-04-14T17:05:15.831Z,13.21
2023-04-14T17:08:03.608Z,13.05
2023-04-14T17:10:50.609Z,13.00
2023-04-14T17:13:37.082Z,12.94
2023-04-14T17:16:23.553Z,12.90
2023-04-14T17:19:10.071Z,12.64
2023-04-14T17:21:56.817Z,12.46
2023-04-14T17:24:44.330Z,12.46
2023-04-14T17:27:30.885Z,12.50
2023-04-14T17:30:17.852Z,12.33
2023-04-14T17:33:06.344Z,12.03
2023-04-14T17:35:56.563Z,11.96
2023-04-14T17:38:43.407Z,11.91
2023-04-14T17:41:30.017Z,11.83
2023-04-14T17:44:16.302Z,11.76
2023-04-14T17:47:04.906Z,11.61
2023-04-14T17:49:52.515Z,11.53
2023-04-14T17:52:39.929Z,11.52
2023-04-14T17:55:26.137Z,11.08
2023-04-14T17:58:12.508Z,11.12
2023-04-14T18:00:59.249Z,11.08
2023-04-14T18:03:45.507Z,10.70
2023-04-14T18:06:35.873Z,10.63
2023-04-14T18:09:22.628Z,10.79
2023-04-14T18:12:08.758Z,10.55
2023-04-14T18:14:55.132Z,10.35
2023-04-14T18:17:43.332Z,10.18
2023-04-14T18:20:30.109Z,9.59
2023-04-14T18:23:16.463Z,9.56
2023-04-14T18:28:52.285Z,8.94
2023-04-14T18:31:38.787Z,8.71
2023-04-14T18:34:25.540Z,8.23
2023-04-14T18:37:12.242Z,8.44
2023-04-14T18:39:58.481Z,8.04
2023-04-14T18:42:44.938Z,8.09
2023-04-14T18:45:31.152Z,7.91
2023-04-14T18:48:17.615Z,7.79
2023-04-14T18:51:07.869Z,7.56
2023-04-14T18:53:54.492Z,7.56
2023-04-14T18:56:40.903Z,7.09
2023-04-14T18:59:27.616Z,7.30
2023-04-14T19:02:14.237Z,6.82
2023-04-14T19:05:01.269Z,7.03
2023-04-14T19:07:47.832Z,6.81
2023-04-14T19:10:36.226Z,7.07
2023-04-14T19:13:23.976Z,7.07
2023-04-14T19:16:13.414Z,6.62
2023-04-14T19:19:00.882Z,6.76
2023-04-14T19:21:47.804Z,6.46
2023-04-14T19:24:35.837Z,6.66
2023-04-14T19:27:22.340Z,6.50
2023-04-14T19:30:09.118Z,6.48
2023-04-14T19:32:55.641Z,6.49
2023-04-14T19:35:44.330Z,6.47
2023-04-14T19:38:30.993Z,6.10
2023-04-14T19:41:17.314Z,6.03
2023-04-14T19:44:04.615Z,6.08
2023-04-14T19:46:51.642Z,6.01
2023-04-14T19:49:38.058Z,5.93
2023-04-14T19:52:24.734Z,5.73
2023-04-14T19:55:10.968Z,5.58
2023-04-14T19:57:58.066Z,5.44
2023-04-14T20:00:45.900Z,5.22
2023-04-14T20:03:34.481Z,5.37
2023-04-14T20:06:21.125Z,5.24
2023-04-14T20:09:07.336Z,5.10
2023-04-14T20:11:53.662Z,4.88
2023-04-14T20:14:40.350Z,5.24
2023-04-14T20:17:27.963Z,5.13
2023-04-14T20:20:16.471Z,4.81
2023-04-14T20:23:02.966Z,4.83
2023-04-14T20:25:50.347Z,4.88
2023-04-14T20:28:37.273Z,4.88
2023-04-14T20:31:24.466Z,4.94
2023-04-14T20:34:12.082Z,4.63
2023-04-14T20:36:58.569Z,4.69
2023-04-14T20:39:46.304Z,4.68
2023-04-14T20:42:32.624Z,4.43
2023-04-14T20:45:19.351Z,4.31
2023-04-14T20:48:06.059Z,4.36
2023-04-14T20:50:52.933Z,4.30
2023-04-14T20:53:39.663Z,4.37
2023-04-14T20:56:28.491Z,4.08
2023-04-14T20:59:16.445Z,4.01
2023-04-14T21:02:03.299Z,4.41
2023-04-14T21:04:50.237Z,4.49
2023-04-14T21:07:38.167Z,4.54
2023-04-14T21:10:24.919Z,4.14
2023-04-14T21:15:27.144Z,3.97
2023-04-14T21:16:18.186Z,3.63
2023-04-14T21:19:05.432Z,3.65
2023-04-14T21:21:52.308Z,3.65
2023-04-14T21:24:39.433Z,3.42
2023-04-14T21:27:27.948Z,3.36
2023-04-14T21:30:14.114Z,3.66
2023-04-14T21:33:00.750Z,3.52
2023-04-14T21:35:47.154Z,3.49
2023-04-14T21:38:33.732Z,3.18
2023-04-14T21:41:20.877Z,3.25
2023-04-14T21:44:08.982Z,3.41
2023-04-14T21:46:55.696Z,3.05
2023-04-14T21:49:42.240Z,3.13
2023-04-14T21:52:28.705Z,2.84
2023-04-14T21:55:14.846Z,2.78
2023-04-14T21:58:01.622Z,3.09
2023-04-14T22:00:48.178Z,2.95
2023-04-14T22:03:37.180Z,3.13
2023-04-14T22:06:24.900Z,3.13
2023-04-14T22:09:11.548Z,3.04
2023-04-14T22:11:58.669Z,3.07
2023-04-14T22:14:45.489Z,3.03
2023-04-14T22:17:32.629Z,2.54
2023-04-14T22:20:19.410Z,2.73
2023-04-14T22:23:06.039Z,2.48
2023-04-14T22:25:53.051Z,2.36
2023-04-14T22:28:39.933Z,2.57
2023-04-14T22:31:27.772Z,2.55
2023-04-14T22:34:14.345Z,2.58
2023-04-14T22:37:00.963Z,3.00
2023-04-14T22:39:47.433Z,2.50
2023-04-14T22:42:34.049Z,2.51
2023-04-14T22:45:20.116Z,2.25
2023-04-14T22:48:09.720Z,2.30
2023-04-14T22:50:56.544Z,2.25
2023-04-14T22:53:42.883Z,2.11
2023-04-14T22:56:29.137Z,2.22
2023-04-14T22:59:16.776Z,2.20
2023-04-14T23:02:03.883Z,2.11
2023-04-14T23:04:50.677Z,1.88
2023-04-14T23:07:41.233Z,1.66
2023-04-14T23:10:28.442Z,1.66
2023-04-14T23:13:14.868Z,2.10
2023-04-14T23:16:01.418Z,1.97
2023-04-14T23:18:52.871Z,2.08
2023-04-14T23:21:39.610Z,1.84
2023-04-14T23:24:26.033Z,1.93
2023-04-14T23:27:12.859Z,1.78
2023-04-14T23:29:59.163Z,1.92
2023-04-14T23:32:45.643Z,2.11
2023-04-14T23:35:31.773Z,2.01
2023-04-14T23:38:19.456Z,1.99
2023-04-14T23:41:06.151Z,1.85
2023-04-14T23:43:52.348Z,1.63
2023-04-14T23:46:39.632Z,1.62
2023-04-14T23:49:34.159Z,1.50
2023-04-14T23:52:22.072Z,1.44
2023-04-14T23:55:09.666Z,1.58
